Mary Holmes, Mississippi
Current Conditions -  °F | °C
As of 12:55 AM on Monday 24 Nov 2014 (Local Time) from KSTF Reporting Station
NA  
Wind Chill: 61°   Ceiling: NA
Heat Index: 61°   Visibility: NA
Dew Point: 57°   Wind: 9mph
Humidity: 88%   Direction: 190°S
Pressure: 29.6"   Gusts: NA
Location:  33.6681°N, 88.7618°W
Report Text: KSTF 240655Z AUTO 19008KT 162V222 16/14 A2960 RMK AO2 PWINO
Loading
Personal Weather Stations






























Interactive Weather Map New forecast layout! Learn more

10-Day Weather Forecast

Advertisements
Track Severe Weather on mobile